CheckWX is a tool to help pilots better visualize weather data.  It is not intended as a substitute for an official pre-flight weather briefing.

06:50:02 UTC

KCDW METAR
Essex County Airport
Caldwell, New Jersey, USA
Current

15 mins ago

KCDW 230635Z AUTO 00000KT 3SM BR FEW003 BKN034 13/13 A3000 RMK AO2 T01280128
Observed
Apr-23 @ 06:35 UTC
Visibility
3 SM
Flight Rules
MVFR
Conditions
Mist
Cloud Levels
  • Few at 300' AGL
  • Broken at 3,400' AGL
Temperature
13°C / 55°F
Dewpoint
13°C / 55°F
Humidity
100%
Altimeter
30" Hg
Pressure
1015.92 hPa
Previous

38 mins ago

KCDW 230612Z AUTO 00000KT 1/4SM FG FEW003 BKN034 13/13 A3001 RMK AO2 T01280128
Observed
Apr-23 @ 06:12 UTC
Visibility
1/4 SM
Flight Rules
LIFR
Conditions
Fog
Cloud Levels
  • Few at 300' AGL
  • Broken at 3,400' AGL
Temperature
13°C / 55°F
Dewpoint
13°C / 55°F
Humidity
100%
Altimeter
30.01" Hg
Pressure
1016.22 hPa
Previous

47 mins ago

KCDW 230603Z AUTO 00000KT 2SM BR SCT035 13/13 A3001 RMK AO2 T01330133
Observed
Apr-23 @ 06:03 UTC
Visibility
2 SM
Flight Rules
IFR
Conditions
Mist
Cloud Levels
  • Scattered at 3,500' AGL
Temperature
13°C / 55°F
Dewpoint
13°C / 55°F
Humidity
100%
Altimeter
30.01" Hg
Pressure
1016.22 hPa